createdAt,value
2018-10-15T00:00:00.668Z,11.3
2018-10-15T00:01:01.332Z,11.1
2018-10-15T00:02:02.055Z,12.1
2018-10-15T00:03:02.782Z,12.0
2018-10-15T00:04:03.510Z,11.3
2018-10-15T00:05:04.483Z,11.0
2018-10-15T00:06:05.204Z,11.1
2018-10-15T00:07:05.964Z,11.1
2018-10-15T00:08:06.683Z,11.3
2018-10-15T00:09:07.652Z,11.7
2018-10-15T00:10:08.372Z,11.3
2018-10-15T00:11:09.114Z,11.6
2018-10-15T00:12:10.115Z,10.9
2018-10-15T00:13:10.822Z,10.6
2018-10-15T00:14:11.541Z,10.7
2018-10-15T00:15:12.277Z,10.6
2018-10-15T00:16:12.998Z,10.2
2018-10-15T00:17:13.776Z,11.1
2018-10-15T00:18:14.496Z,11.3
2018-10-15T00:19:15.234Z,10.8
2018-10-15T00:20:15.962Z,10.9
2018-10-15T00:21:16.699Z,10.5
2018-10-15T00:22:17.424Z,10.7
2018-10-15T00:23:18.152Z,10.6
2018-10-15T00:24:18.883Z,11.3
2018-10-15T00:25:19.677Z,10.9
2018-10-15T00:26:20.417Z,10.5
2018-10-15T00:27:21.151Z,11.8
2018-10-15T00:28:21.901Z,10.4
2018-10-15T00:29:22.621Z,11.4
2018-10-15T00:30:23.337Z,10.6
2018-10-15T00:31:24.062Z,10.5
2018-10-15T00:32:24.809Z,10.0
2018-10-15T00:33:25.537Z,11.3
2018-10-15T00:34:26.268Z,11.5
2018-10-15T00:35:26.992Z,11.0
2018-10-15T00:36:27.727Z,11.4
2018-10-15T00:37:28.467Z,11.7
2018-10-15T00:38:29.173Z,11.1
2018-10-15T00:39:29.907Z,11.3
2018-10-15T00:40:30.637Z,11.4
2018-10-15T00:41:31.362Z,11.7
2018-10-15T00:42:32.390Z,11.4
2018-10-15T00:43:33.110Z,12.1
2018-10-15T00:44:33.825Z,11.7
2018-10-15T00:45:34.538Z,12.1
2018-10-15T00:46:35.264Z,11.9
2018-10-15T00:47:36.240Z,12.6
2018-10-15T00:48:36.965Z,12.6
2018-10-15T00:49:37.689Z,12.1
2018-10-15T00:50:38.416Z,11.5
2018-10-15T00:51:39.152Z,13.1
2018-10-15T00:52:39.919Z,12.3
2018-10-15T00:53:40.637Z,13.0
2018-10-15T00:54:41.378Z,12.2
2018-10-15T00:55:42.101Z,13.3
2018-10-15T00:56:42.840Z,12.7
2018-10-15T00:57:43.624Z,13.3
2018-10-15T00:58:44.351Z,12.5
2018-10-15T00:59:45.132Z,12.7
2018-10-15T01:00:45.860Z,13.2
2018-10-15T01:01:46.851Z,12.9
2018-10-15T01:02:47.562Z,12.3
2018-10-15T01:03:48.283Z,12.6
2018-10-15T01:04:49.262Z,13.1
2018-10-15T01:05:49.981Z,12.2
2018-10-15T01:06:50.709Z,12.2
2018-10-15T01:07:51.440Z,11.3
2018-10-15T01:08:52.166Z,12.4
2018-10-15T01:09:53.150Z,12.7
2018-10-15T01:10:53.867Z,12.6
2018-10-15T01:11:54.589Z,12.6
2018-10-15T01:12:55.324Z,12.8
2018-10-15T01:13:56.060Z,11.5
2018-10-15T01:14:56.781Z,12.6
2018-10-15T01:15:57.514Z,13.6
2018-10-15T01:16:58.229Z,12.9
2018-10-15T01:17:58.956Z,12.8
2018-10-15T01:18:59.749Z,13.5
2018-10-15T01:20:00.453Z,13.7
2018-10-15T01:21:01.183Z,12.3
2018-10-15T01:22:01.895Z,13.3
2018-10-15T01:23:02.619Z,13.0
2018-10-15T01:24:03.344Z,13.0
2018-10-15T01:25:04.320Z,13.7
2018-10-15T01:26:05.066Z,12.6
2018-10-15T01:27:05.787Z,13.1
2018-10-15T01:28:06.521Z,12.6
2018-10-15T01:29:07.235Z,13.6
2018-10-15T01:30:07.966Z,12.8
2018-10-15T01:31:08.690Z,14.2
2018-10-15T01:32:09.411Z,13.8
2018-10-15T01:33:10.149Z,13.7
2018-10-15T01:34:10.875Z,13.1
2018-10-15T01:35:11.596Z,13.5
2018-10-15T01:36:12.312Z,13.4
2018-10-15T01:37:13.037Z,13.7
2018-10-15T01:38:13.759Z,12.7
2018-10-15T01:39:14.482Z,13.1
2018-10-15T01:40:15.250Z,13.0
2018-10-15T01:41:16.236Z,14.1
2018-10-15T01:42:17.225Z,13.8
2018-10-15T01:43:17.952Z,12.7
2018-10-15T01:44:18.664Z,13.3
2018-10-15T01:45:19.385Z,13.5
2018-10-15T01:46:20.105Z,13.5
2018-10-15T01:47:21.087Z,13.6
2018-10-15T01:48:21.800Z,13.5
2018-10-15T01:49:22.848Z,13.6
2018-10-15T01:50:23.562Z,13.5
2018-10-15T01:51:24.344Z,13.9
2018-10-15T01:52:25.065Z,12.6
2018-10-15T01:53:25.771Z,13.5
2018-10-15T01:54:26.504Z,12.9
2018-10-15T01:55:27.226Z,13.6
2018-10-15T01:56:27.945Z,13.3
2018-10-15T01:57:28.658Z,13.3
2018-10-15T01:58:29.386Z,13.5
2018-10-15T01:59:30.108Z,12.8
2018-10-15T02:00:30.833Z,12.9
2018-10-15T02:01:31.551Z,13.3
2018-10-15T02:02:32.542Z,13.4
2018-10-15T02:03:33.265Z,13.5
2018-10-15T02:04:34.001Z,13.4
2018-10-15T02:05:34.722Z,14.0
2018-10-15T02:06:35.445Z,13.6
2018-10-15T02:07:36.162Z,13.0
2018-10-15T02:08:36.936Z,12.2
2018-10-15T02:09:37.650Z,13.8
2018-10-15T02:10:38.369Z,13.9
2018-10-15T02:11:39.105Z,13.5
2018-10-15T02:12:39.835Z,14.0
2018-10-15T02:13:40.562Z,14.4
2018-10-15T02:14:41.282Z,13.4
2018-10-15T02:15:42.042Z,13.7
2018-10-15T02:16:42.767Z,12.7
2018-10-15T02:17:43.484Z,13.1
2018-10-15T02:18:44.213Z,13.3
2018-10-15T02:19:44.935Z,12.9
2018-10-15T02:20:45.653Z,12.9
2018-10-15T02:21:46.376Z,13.8
2018-10-15T02:22:47.100Z,14.2
2018-10-15T02:23:47.831Z,13.9
2018-10-15T02:24:48.542Z,13.5
2018-10-15T02:25:49.270Z,13.4
2018-10-15T02:26:50.001Z,13.9
2018-10-15T02:27:50.717Z,14.0
2018-10-15T02:28:51.435Z,13.7
2018-10-15T02:29:52.164Z,13.7
2018-10-15T02:30:52.892Z,13.6
2018-10-15T02:31:53.603Z,13.6
2018-10-15T02:32:54.320Z,14.3
2018-10-15T02:33:55.283Z,13.0
2018-10-15T02:34:56.250Z,13.8
2018-10-15T02:35:56.969Z,14.5
2018-10-15T02:36:57.703Z,14.2
2018-10-15T02:37:58.421Z,13.7
2018-10-15T02:38:59.139Z,13.7
2018-10-15T02:39:59.861Z,13.9
2018-10-15T02:41:00.596Z,14.0
2018-10-15T02:42:01.315Z,15.1
2018-10-15T02:43:02.046Z,13.7
2018-10-15T02:44:02.765Z,13.9
2018-10-15T02:45:03.494Z,15.0
2018-10-15T02:46:04.211Z,14.4
2018-10-15T02:47:05.251Z,14.4
2018-10-15T02:48:05.958Z,15.4
2018-10-15T02:49:06.679Z,14.1
2018-10-15T02:50:07.386Z,15.7
2018-10-15T02:51:08.115Z,14.4
2018-10-15T02:52:08.838Z,15.3
2018-10-15T02:53:09.565Z,14.3
2018-10-15T02:54:10.284Z,14.5
2018-10-15T02:55:11.003Z,14.4
2018-10-15T02:56:11.730Z,14.5
2018-10-15T02:57:12.458Z,14.5
2018-10-15T02:58:13.188Z,14.3
2018-10-15T02:59:13.908Z,15.4
2018-10-15T03:00:14.886Z,15.1
2018-10-15T03:01:15.609Z,15.1
2018-10-15T03:02:16.333Z,14.4
2018-10-15T03:03:17.050Z,15.1
2018-10-15T03:04:17.793Z,15.5
2018-10-15T03:05:18.778Z,14.9
2018-10-15T03:06:19.763Z,15.6
2018-10-15T03:07:20.488Z,15.3
2018-10-15T03:08:21.206Z,16.2
2018-10-15T03:09:21.933Z,15.8
2018-10-15T03:10:22.659Z,14.7
2018-10-15T03:11:23.371Z,15.9
2018-10-15T03:12:24.097Z,16.7
2018-10-15T03:13:25.128Z,16.7
2018-10-15T03:14:26.103Z,16.0
2018-10-15T03:15:26.828Z,15.7
2018-10-15T03:16:27.549Z,15.5
2018-10-15T03:17:28.280Z,16.2
2018-10-15T03:18:29.305Z,16.0
2018-10-15T03:19:30.020Z,16.3
2018-10-15T03:20:30.738Z,15.8
2018-10-15T03:21:31.462Z,16.0
2018-10-15T03:22:32.453Z,16.7
2018-10-15T03:23:33.220Z,15.7
2018-10-15T03:24:34.193Z,16.3
2018-10-15T03:25:34.923Z,16.2
2018-10-15T03:26:35.634Z,16.3
2018-10-15T03:27:36.350Z,16.1
2018-10-15T03:28:37.108Z,16.5
2018-10-15T03:29:37.835Z,15.7
2018-10-15T03:30:38.561Z,16.6
2018-10-15T03:31:39.282Z,16.9
2018-10-15T03:32:40.001Z,16.5
2018-10-15T03:33:40.716Z,16.0
2018-10-15T03:34:41.445Z,15.2
2018-10-15T03:35:42.438Z,17.2
2018-10-15T03:36:43.145Z,17.2
2018-10-15T03:37:43.877Z,19.8
2018-10-15T03:38:44.586Z,18.3
2018-10-15T03:39:45.308Z,17.3
2018-10-15T03:40:46.280Z,17.4
2018-10-15T03:41:46.999Z,16.7
2018-10-15T03:42:47.718Z,16.5
2018-10-15T03:43:48.451Z,17.0
2018-10-15T03:44:49.177Z,16.9
2018-10-15T03:45:49.940Z,16.7
2018-10-15T03:46:50.669Z,16.0
2018-10-15T03:47:51.396Z,16.1
2018-10-15T03:48:52.109Z,17.7
2018-10-15T03:49:52.829Z,17.1
2018-10-15T03:50:53.558Z,16.3
2018-10-15T03:51:54.266Z,16.8
2018-10-15T03:52:54.988Z,17.2
2018-10-15T03:53:55.968Z,16.8
2018-10-15T03:54:56.692Z,16.7
2018-10-15T03:55:57.459Z,16.6
2018-10-15T03:56:58.192Z,17.2
2018-10-15T03:57:58.908Z,16.2
2018-10-15T03:58:59.628Z,16.8
2018-10-15T04:00:00.349Z,16.9
2018-10-15T04:01:01.076Z,16.8
2018-10-15T04:02:02.050Z,15.3
2018-10-15T04:03:02.822Z,16.6
2018-10-15T04:04:03.552Z,16.6
2018-10-15T04:05:04.281Z,16.2
2018-10-15T04:06:05.008Z,15.6
2018-10-15T04:07:05.737Z,16.5
2018-10-15T04:08:06.463Z,16.0
2018-10-15T04:09:07.178Z,15.3
2018-10-15T04:10:07.918Z,15.3
2018-10-15T04:11:08.644Z,16.2
2018-10-15T04:12:09.434Z,16.8
2018-10-15T04:13:10.166Z,16.7
2018-10-15T04:14:10.881Z,15.9
2018-10-15T04:15:11.604Z,15.4
2018-10-15T04:16:12.325Z,15.1
2018-10-15T04:17:13.301Z,15.9
2018-10-15T04:18:14.048Z,15.2
2018-10-15T04:19:14.755Z,15.5
2018-10-15T04:20:15.493Z,15.5
2018-10-15T04:21:16.200Z,16.3
2018-10-15T04:22:16.921Z,14.8
2018-10-15T04:23:17.892Z,15.9
2018-10-15T04:24:18.602Z,16.2
2018-10-15T04:25:19.316Z,15.0
2018-10-15T04:26:20.092Z,16.1
2018-10-15T04:27:20.802Z,16.3
2018-10-15T04:28:21.526Z,16.0
2018-10-15T04:29:22.252Z,15.7
2018-10-15T04:30:22.976Z,15.6
2018-10-15T04:31:23.691Z,15.3
2018-10-15T04:32:24.414Z,16.5
2018-10-15T04:33:25.145Z,16.1
2018-10-15T04:34:25.867Z,16.4
2018-10-15T04:35:26.578Z,16.5
2018-10-15T04:36:27.310Z,16.0
2018-10-15T04:37:28.338Z,15.8
2018-10-15T04:38:29.052Z,16.0
2018-10-15T04:39:29.778Z,15.3
2018-10-15T04:40:30.495Z,15.9
2018-10-15T04:41:31.204Z,16.5
2018-10-15T04:42:32.220Z,16.7
2018-10-15T04:43:32.941Z,16.6
2018-10-15T04:44:34.012Z,16.5
2018-10-15T04:45:34.747Z,15.8
2018-10-15T04:46:35.473Z,16.4
2018-10-15T04:47:36.191Z,15.9
2018-10-15T04:48:36.923Z,16.8
2018-10-15T04:49:37.840Z,16.1
2018-10-15T04:50:38.387Z,16.5
2018-10-15T04:51:39.109Z,15.4
2018-10-15T04:52:40.083Z,16.6
2018-10-15T04:53:40.787Z,16.8
2018-10-15T04:54:41.508Z,16.2
2018-10-15T04:55:42.236Z,17.4
2018-10-15T04:56:43.004Z,18.0
2018-10-15T04:57:43.728Z,16.7
2018-10-15T04:58:44.453Z,16.0
2018-10-15T04:59:45.169Z,16.8
2018-10-15T05:00:45.885Z,15.7
2018-10-15T05:01:46.624Z,17.1
2018-10-15T05:02:47.342Z,16.0
2018-10-15T05:03:48.057Z,15.8
2018-10-15T05:04:48.795Z,15.7
2018-10-15T05:05:50.027Z,17.1
2018-10-15T05:06:50.744Z,16.3
2018-10-15T05:07:51.767Z,16.0
2018-10-15T05:08:52.491Z,15.3
2018-10-15T05:09:53.209Z,16.7
2018-10-15T05:10:53.925Z,17.8
2018-10-15T05:11:54.995Z,16.6
2018-10-15T05:12:55.796Z,17.4
2018-10-15T05:13:56.931Z,17.1
2018-10-15T05:14:58.031Z,17.8
2018-10-15T05:15:58.772Z,18.0
2018-10-15T05:16:59.890Z,18.6
2018-10-15T05:18:00.819Z,17.4
2018-10-15T05:19:01.677Z,17.6
2018-10-15T05:20:02.434Z,17.6
2018-10-15T05:21:03.322Z,17.5
2018-10-15T05:22:04.035Z,18.9
2018-10-15T05:23:04.798Z,18.8
2018-10-15T05:24:06.024Z,18.7
2018-10-15T05:25:06.760Z,18.5
2018-10-15T05:26:07.941Z,17.8
2018-10-15T05:27:09.024Z,19.5
2018-10-15T05:28:09.763Z,17.8
2018-10-15T05:29:10.846Z,19.3
2018-10-15T05:30:12.115Z,19.2
2018-10-15T05:31:12.708Z,17.2
2018-10-15T05:32:13.500Z,17.1
2018-10-15T05:33:14.291Z,18.6
2018-10-15T05:34:15.183Z,18.6
2018-10-15T05:35:15.952Z,18.1
2018-10-15T05:36:16.779Z,19.3
2018-10-15T05:37:17.408Z,19.1
2018-10-15T05:38:18.163Z,19.8
2018-10-15T05:39:18.880Z,20.0
2018-10-15T05:40:19.920Z,19.2
2018-10-15T05:41:20.628Z,19.7
2018-10-15T05:42:21.444Z,19.8
2018-10-15T05:43:22.093Z,18.9
2018-10-15T05:44:22.816Z,19.9
2018-10-15T05:45:23.608Z,20.2
2018-10-15T05:46:24.339Z,20.2
2018-10-15T05:47:25.362Z,20.6
2018-10-15T05:48:26.084Z,18.7
2018-10-15T05:49:26.812Z,19.0
2018-10-15T05:50:27.539Z,20.2
2018-10-15T05:51:28.275Z,19.0
2018-10-15T05:52:29.050Z,19.0
2018-10-15T05:53:30.061Z,20.3
2018-10-15T05:54:30.793Z,19.9
2018-10-15T05:55:31.537Z,19.8
2018-10-15T05:56:32.264Z,18.9
2018-10-15T05:57:32.986Z,18.2
2018-10-15T05:58:33.702Z,19.1
2018-10-15T05:59:34.489Z,28.9
2018-10-15T06:00:35.216Z,21.9
2018-10-15T06:01:35.931Z,18.6
2018-10-15T06:02:36.654Z,19.5
2018-10-15T06:03:37.366Z,17.2
2018-10-15T06:04:38.096Z,16.8
2018-10-15T06:05:38.829Z,16.2
2018-10-15T06:06:39.556Z,16.0
2018-10-15T06:07:40.273Z,16.5
2018-10-15T06:08:41.020Z,15.3
2018-10-15T06:09:41.742Z,76.8
2018-10-15T06:10:42.478Z,26.1
2018-10-15T06:11:43.191Z,18.0
2018-10-15T06:12:44.028Z,17.6
2018-10-15T06:13:44.687Z,17.1
2018-10-15T06:14:45.408Z,14.5
2018-10-15T06:15:46.136Z,15.4
2018-10-15T06:16:46.858Z,14.9
2018-10-15T06:17:47.574Z,14.4
2018-10-15T06:18:48.309Z,14.1
2018-10-15T06:19:49.099Z,14.5
2018-10-15T06:20:49.815Z,13.6
2018-10-15T06:21:50.578Z,14.1
2018-10-15T06:22:51.367Z,13.6
2018-10-15T06:23:52.038Z,14.7
2018-10-15T06:24:52.755Z,14.4
2018-10-15T06:25:53.498Z,14.1
2018-10-15T06:26:54.221Z,14.5
2018-10-15T06:27:55.200Z,13.2
2018-10-15T06:28:55.975Z,13.5
2018-10-15T06:29:56.693Z,14.5
2018-10-15T06:30:57.414Z,14.6
2018-10-15T06:31:58.141Z,13.0
2018-10-15T06:32:58.879Z,14.3
2018-10-15T06:33:59.598Z,13.3
2018-10-15T06:35:00.327Z,12.8
2018-10-15T06:36:01.613Z,14.4
2018-10-15T06:37:03.670Z,14.9
2018-10-15T06:38:05.106Z,14.0
2018-10-15T06:39:05.809Z,14.0
2018-10-15T06:40:06.779Z,14.0
2018-10-15T06:41:07.550Z,14.3
2018-10-15T06:42:08.283Z,14.4
2018-10-15T06:43:08.958Z,14.3
2018-10-15T06:44:09.744Z,14.5
2018-10-15T06:45:10.479Z,14.4
2018-10-15T06:46:11.155Z,13.9
2018-10-15T06:47:11.979Z,14.0
2018-10-15T06:48:12.637Z,13.5
2018-10-15T06:49:13.407Z,13.8
2018-10-15T06:50:14.110Z,14.0
2018-10-15T06:51:14.906Z,14.1
2018-10-15T06:52:15.640Z,14.4
2018-10-15T06:53:16.373Z,15.1
2018-10-15T06:54:17.084Z,14.4
2018-10-15T06:55:17.846Z,13.9
2018-10-15T06:56:18.559Z,13.1
2018-10-15T06:57:19.338Z,13.3
2018-10-15T06:58:20.013Z,14.5
2018-10-15T06:59:20.923Z,15.2
2018-10-15T07:00:21.546Z,14.8
2018-10-15T07:01:22.290Z,13.8
2018-10-15T07:02:23.004Z,13.6
2018-10-15T07:03:23.774Z,12.8
2018-10-15T07:04:24.453Z,13.1
2018-10-15T07:05:25.115Z,11.7
2018-10-15T07:06:25.839Z,11.6
2018-10-15T07:07:26.718Z,12.6
2018-10-15T07:08:27.370Z,11.2
2018-10-15T07:09:28.139Z,10.5
2018-10-15T07:10:28.863Z,11.6
2018-10-15T07:11:29.597Z,10.9
2018-10-15T07:12:30.314Z,11.4
2018-10-15T07:13:31.609Z,10.7
2018-10-15T07:14:32.345Z,10.5
2018-10-15T07:15:33.367Z,10.1
2018-10-15T07:16:34.101Z,11.2
2018-10-15T07:17:35.096Z,9.9
2018-10-15T07:18:35.851Z,10.2
2018-10-15T07:19:36.578Z,9.7
2018-10-15T07:20:37.323Z,10.8
2018-10-15T07:21:38.042Z,10.2
2018-10-15T07:22:38.764Z,10.5
2018-10-15T07:23:39.499Z,9.2
2018-10-15T07:24:40.231Z,10.6
2018-10-15T07:25:40.979Z,10.4
2018-10-15T07:26:41.730Z,10.6
2018-10-15T07:27:42.461Z,10.8
2018-10-15T07:28:43.188Z,11.4
2018-10-15T07:29:43.964Z,10.5
2018-10-15T07:30:44.702Z,10.3
2018-10-15T07:31:45.437Z,11.6
2018-10-15T07:32:46.180Z,11.5
2018-10-15T07:33:46.929Z,10.5
2018-10-15T07:34:47.651Z,10.9
2018-10-15T07:35:48.395Z,11.7
2018-10-15T07:36:49.122Z,11.2
2018-10-15T07:37:49.846Z,11.6
2018-10-15T07:38:50.575Z,11.6
2018-10-15T07:39:51.297Z,11.5
2018-10-15T07:40:52.316Z,8.9
2018-10-15T07:41:53.037Z,10.7
2018-10-15T07:42:53.762Z,10.4
2018-10-15T07:43:54.503Z,10.7
2018-10-15T07:44:55.228Z,9.8
2018-10-15T07:45:56.069Z,8.9
2018-10-15T07:46:56.742Z,9.3
2018-10-15T07:47:57.488Z,9.4
2018-10-15T07:48:58.212Z,8.8
2018-10-15T07:49:58.947Z,9.6
2018-10-15T07:50:59.682Z,7.6
2018-10-15T07:52:00.425Z,8.3
2018-10-15T07:53:01.172Z,9.0
2018-10-15T07:54:01.859Z,7.0
2018-10-15T07:55:02.599Z,7.2
2018-10-15T07:56:03.372Z,7.4
2018-10-15T07:57:04.070Z,6.3
2018-10-15T07:58:04.857Z,6.5
2018-10-15T07:59:05.560Z,6.5
2018-10-15T08:00:06.269Z,7.6
2018-10-15T08:01:07.249Z,7.2
2018-10-15T08:02:07.988Z,6.7
2018-10-15T08:03:08.694Z,7.0
2018-10-15T08:04:09.501Z,6.5
2018-10-15T08:05:10.234Z,6.2
2018-10-15T08:06:10.963Z,5.9
2018-10-15T08:07:11.688Z,6.3
2018-10-15T08:08:12.418Z,7.0
2018-10-15T08:09:13.179Z,6.2
2018-10-15T08:10:13.921Z,6.1
2018-10-15T08:11:14.639Z,6.4
2018-10-15T08:12:15.346Z,5.8
2018-10-15T08:13:16.078Z,6.2
2018-10-15T08:14:16.906Z,6.1
2018-10-15T08:15:17.560Z,5.8
2018-10-15T08:16:18.392Z,5.6
2018-10-15T08:17:19.082Z,5.8
2018-10-15T08:18:19.813Z,5.7
2018-10-15T08:19:20.545Z,5.5
2018-10-15T08:20:21.310Z,6.2
2018-10-15T08:21:22.021Z,5.7
2018-10-15T08:22:22.816Z,6.0
2018-10-15T08:23:23.786Z,6.5
2018-10-15T08:24:25.091Z,6.7
2018-10-15T08:25:26.011Z,6.1
2018-10-15T08:26:26.991Z,6.2
2018-10-15T08:27:27.729Z,5.8
2018-10-15T08:28:28.521Z,6.2
2018-10-15T08:29:29.261Z,6.0
2018-10-15T08:30:30.020Z,6.2
2018-10-15T08:31:30.759Z,5.9
2018-10-15T08:32:31.486Z,6.2
2018-10-15T08:33:32.219Z,6.4
2018-10-15T08:34:32.970Z,6.4
2018-10-15T08:35:33.767Z,6.2
2018-10-15T08:36:34.442Z,5.7
2018-10-15T08:37:35.184Z,5.7
2018-10-15T08:38:35.960Z,5.7
2018-10-15T08:39:36.698Z,5.9
2018-10-15T08:40:37.423Z,6.2
2018-10-15T08:41:38.182Z,6.1
2018-10-15T08:42:38.889Z,6.4
2018-10-15T08:43:39.630Z,5.9
2018-10-15T08:44:40.360Z,6.4
2018-10-15T08:45:41.158Z,6.0
2018-10-15T08:46:41.835Z,5.9
2018-10-15T08:47:42.577Z,5.4
2018-10-15T08:48:43.314Z,5.2
2018-10-15T08:49:44.090Z,5.6
2018-10-15T08:50:44.866Z,6.2
2018-10-15T08:51:45.561Z,5.7
2018-10-15T08:52:46.368Z,5.7
2018-10-15T08:53:47.048Z,5.3
2018-10-15T08:54:47.826Z,5.7
2018-10-15T08:55:48.648Z,5.5
2018-10-15T08:56:49.379Z,5.8
2018-10-15T08:57:50.095Z,5.6
2018-10-15T08:58:50.895Z,5.3
2018-10-15T08:59:51.813Z,5.2
2018-10-15T09:00:52.581Z,5.9
2018-10-15T09:01:53.291Z,5.8
2018-10-15T09:02:54.120Z,5.5
2018-10-15T09:03:55.193Z,5.4
2018-10-15T09:04:56.156Z,5.1
2018-10-15T09:05:56.850Z,5.8
2018-10-15T09:06:57.611Z,5.4
2018-10-15T09:07:58.556Z,5.8
2018-10-15T09:08:59.202Z,5.7
2018-10-15T09:09:59.808Z,5.5
2018-10-15T09:11:00.652Z,5.1
2018-10-15T09:12:01.298Z,5.8
2018-10-15T09:13:02.285Z,5.3
2018-10-15T09:14:03.015Z,5.7
2018-10-15T09:15:03.764Z,6.1
2018-10-15T09:16:04.771Z,5.7
2018-10-15T09:17:05.489Z,5.2
2018-10-15T09:18:06.252Z,6.0
2018-10-15T09:19:06.965Z,5.5
2018-10-15T09:20:07.698Z,5.4
2018-10-15T09:21:08.468Z,5.7
2018-10-15T09:22:09.254Z,5.5
2018-10-15T09:23:10.007Z,6.2
2018-10-15T09:24:10.759Z,5.5
2018-10-15T09:25:11.497Z,5.0
2018-10-15T09:26:12.233Z,5.5
2018-10-15T09:27:13.066Z,5.7
2018-10-15T09:28:13.708Z,5.9
2018-10-15T09:29:14.443Z,5.7
2018-10-15T09:30:15.207Z,5.3
2018-10-15T09:31:15.986Z,5.6
2018-10-15T09:32:16.690Z,5.2
2018-10-15T09:33:17.439Z,5.3
2018-10-15T09:34:18.175Z,5.0
2018-10-15T09:35:18.943Z,5.3
2018-10-15T09:36:19.651Z,5.2
2018-10-15T09:37:20.389Z,5.4
2018-10-15T09:38:21.170Z,5.8
2018-10-15T09:39:21.866Z,5.4
2018-10-15T09:40:22.608Z,5.1
2018-10-15T09:41:23.731Z,5.5
2018-10-15T09:42:24.434Z,4.9
2018-10-15T09:43:25.173Z,4.7
2018-10-15T09:44:25.955Z,5.4
2018-10-15T09:45:27.044Z,5.2
2018-10-15T09:46:27.777Z,5.0
2018-10-15T09:47:28.514Z,5.4
2018-10-15T09:48:30.262Z,5.1
2018-10-15T09:49:30.983Z,5.0
2018-10-15T09:50:31.808Z,5.0
2018-10-15T09:51:32.991Z,5.2
2018-10-15T09:52:33.714Z,5.3
2018-10-15T09:53:35.168Z,4.7
2018-10-15T09:54:36.882Z,5.3
2018-10-15T09:55:37.975Z,4.5
2018-10-15T09:56:38.702Z,5.3
2018-10-15T09:57:39.444Z,5.0
2018-10-15T09:58:40.170Z,5.1
2018-10-15T09:59:40.902Z,5.3
2018-10-15T10:00:41.648Z,5.0
2018-10-15T10:01:42.397Z,5.1
2018-10-15T10:02:43.611Z,4.7
2018-10-15T10:03:44.386Z,4.8
2018-10-15T10:04:45.133Z,5.3
2018-10-15T10:05:45.901Z,4.2
2018-10-15T10:06:46.641Z,5.1
2018-10-15T10:07:47.396Z,5.1
2018-10-15T10:08:48.112Z,5.0
2018-10-15T10:09:48.854Z,5.0
2018-10-15T10:10:49.659Z,5.4
2018-10-15T10:11:50.373Z,5.2
2018-10-15T10:12:51.201Z,5.0
2018-10-15T10:13:51.864Z,5.0
2018-10-15T10:14:53.005Z,5.8
2018-10-15T10:15:53.721Z,5.2
2018-10-15T10:16:54.514Z,5.6
2018-10-15T10:17:55.339Z,4.9
2018-10-15T10:18:56.042Z,5.1
2018-10-15T10:19:56.667Z,4.9
2018-10-15T10:20:58.168Z,5.7
2018-10-15T10:21:58.969Z,5.4
2018-10-15T10:22:59.688Z,6.0
2018-10-15T10:24:00.434Z,5.2
2018-10-15T10:25:01.161Z,5.5
2018-10-15T10:26:01.904Z,4.9
2018-10-15T10:27:03.106Z,5.2
2018-10-15T10:28:03.803Z,4.8
2018-10-15T10:29:04.575Z,4.8
2018-10-15T10:30:05.347Z,5.8
2018-10-15T10:31:06.114Z,5.6
2018-10-15T10:32:07.060Z,4.7
2018-10-15T10:33:07.879Z,4.9
2018-10-15T10:34:08.565Z,5.8
2018-10-15T10:35:09.320Z,5.3
2018-10-15T10:36:10.041Z,5.1
2018-10-15T10:37:10.784Z,5.0
2018-10-15T10:38:11.579Z,5.3
2018-10-15T10:39:12.335Z,5.7
2018-10-15T10:40:13.269Z,5.5
2018-10-15T10:41:13.813Z,5.7
2018-10-15T10:42:14.592Z,4.9
2018-10-15T10:43:15.299Z,4.9
2018-10-15T10:44:16.063Z,5.5
2018-10-15T10:45:16.837Z,5.2
2018-10-15T10:46:17.604Z,5.4
2018-10-15T10:47:18.408Z,5.8
2018-10-15T10:48:19.074Z,5.3
2018-10-15T10:49:19.808Z,5.0
2018-10-15T10:50:20.545Z,5.3
2018-10-15T10:51:21.272Z,5.7
2018-10-15T10:52:22.012Z,5.4
2018-10-15T10:53:22.750Z,5.5
2018-10-15T10:54:23.491Z,5.0
2018-10-15T10:55:24.243Z,5.2
2018-10-15T10:56:25.020Z,5.4
2018-10-15T10:57:25.802Z,4.9
2018-10-15T10:58:26.514Z,5.4
2018-10-15T10:59:27.306Z,5.4
2018-10-15T11:00:27.988Z,5.3
2018-10-15T11:01:28.710Z,5.0
2018-10-15T11:02:29.478Z,5.7
2018-10-15T11:03:30.187Z,5.6
2018-10-15T11:04:30.913Z,5.4
2018-10-15T11:05:31.652Z,5.4
2018-10-15T11:06:32.380Z,6.0
2018-10-15T11:07:33.632Z,5.5
2018-10-15T11:08:34.456Z,5.0
2018-10-15T11:09:35.096Z,5.9
2018-10-15T11:10:35.833Z,5.5
2018-10-15T11:11:36.813Z,5.4
2018-10-15T11:12:37.905Z,5.3
2018-10-15T11:13:38.896Z,5.3
2018-10-15T11:14:39.703Z,5.7
2018-10-15T11:15:40.482Z,5.1
2018-10-15T11:16:41.205Z,5.3
2018-10-15T11:17:41.947Z,5.0
2018-10-15T11:18:42.757Z,5.2
2018-10-15T11:19:43.407Z,4.9
2018-10-15T11:20:44.141Z,4.5
2018-10-15T11:21:45.134Z,5.4
2018-10-15T11:22:45.869Z,5.1
2018-10-15T11:23:46.861Z,4.6
2018-10-15T11:24:47.599Z,5.1
2018-10-15T11:25:48.385Z,5.3
2018-10-15T11:26:49.124Z,5.4
2018-10-15T11:27:49.866Z,5.3
2018-10-15T11:28:50.607Z,5.1
2018-10-15T11:29:51.340Z,5.5
2018-10-15T11:30:52.082Z,5.2
2018-10-15T11:31:52.812Z,5.4
2018-10-15T11:32:53.791Z,4.9
2018-10-15T11:33:54.773Z,5.5
2018-10-15T11:34:55.530Z,5.2
2018-10-15T11:35:56.292Z,5.0
2018-10-15T11:36:57.035Z,5.1
2018-10-15T11:37:57.789Z,4.9
2018-10-15T11:38:58.523Z,4.7
2018-10-15T11:39:59.257Z,5.3
2018-10-15T11:41:00.068Z,5.2
2018-10-15T11:42:00.784Z,5.2
2018-10-15T11:43:01.549Z,5.1
2018-10-15T11:44:02.303Z,4.9
2018-10-15T11:45:03.308Z,4.8
2018-10-15T11:46:04.117Z,5.4
2018-10-15T11:47:04.896Z,5.0
2018-10-15T11:48:05.612Z,5.3
2018-10-15T11:49:06.346Z,5.2
2018-10-15T11:50:07.153Z,5.2
2018-10-15T11:51:07.814Z,5.9
2018-10-15T11:52:08.562Z,4.9
2018-10-15T11:53:09.298Z,4.8
2018-10-15T11:54:10.165Z,4.7
2018-10-15T11:55:10.778Z,4.7
2018-10-15T11:56:11.505Z,5.1
2018-10-15T11:57:12.230Z,4.5
2018-10-15T11:58:12.985Z,4.9
2018-10-15T11:59:13.773Z,4.6
2018-10-15T12:00:14.600Z,4.7
2018-10-15T12:01:15.385Z,4.5
2018-10-15T12:02:16.349Z,4.4
2018-10-15T12:03:17.089Z,4.9
2018-10-15T12:04:17.824Z,4.8
2018-10-15T12:05:18.556Z,4.4
2018-10-15T12:06:19.292Z,4.7
2018-10-15T12:07:20.283Z,4.3
2018-10-15T12:08:21.036Z,4.5
2018-10-15T12:09:21.780Z,4.4
2018-10-15T12:10:22.587Z,4.6
2018-10-15T12:11:23.334Z,4.8
2018-10-15T12:12:24.084Z,4.6
2018-10-15T12:13:24.812Z,4.5
2018-10-15T12:14:25.545Z,4.1
2018-10-15T12:15:26.297Z,4.1
2018-10-15T12:16:27.030Z,4.2
2018-10-15T12:17:27.787Z,4.1
2018-10-15T12:18:28.846Z,4.3
2018-10-15T12:19:29.584Z,4.8
2018-10-15T12:20:30.318Z,4.1
2018-10-15T12:21:31.047Z,4.1
2018-10-15T12:22:32.118Z,4.5
2018-10-15T12:23:32.794Z,4.1
2018-10-15T12:24:33.521Z,4.4
2018-10-15T12:25:34.253Z,3.9
2018-10-15T12:26:34.993Z,4.1
2018-10-15T12:27:35.737Z,4.1
2018-10-15T12:28:36.739Z,4.5
2018-10-15T12:29:37.500Z,4.2
2018-10-15T12:30:38.215Z,4.1
2018-10-15T12:31:38.952Z,5.0
2018-10-15T12:32:39.694Z,3.6
2018-10-15T12:33:40.426Z,4.1
2018-10-15T12:34:41.428Z,4.3
2018-10-15T12:35:42.200Z,4.4
2018-10-15T12:36:42.967Z,4.6
2018-10-15T12:37:43.703Z,3.7
2018-10-15T12:38:44.426Z,4.7
2018-10-15T12:39:45.175Z,4.2
2018-10-15T12:40:45.913Z,4.1
2018-10-15T12:41:46.678Z,4.1
2018-10-15T12:42:47.493Z,4.2
2018-10-15T12:43:48.222Z,4.3
2018-10-15T12:44:48.955Z,4.8
2018-10-15T12:45:49.941Z,4.7
2018-10-15T12:46:50.684Z,4.8
2018-10-15T12:47:51.427Z,3.9
2018-10-15T12:48:52.169Z,4.5
2018-10-15T12:49:52.902Z,4.5
2018-10-15T12:50:53.637Z,4.7
2018-10-15T12:51:54.372Z,4.7
2018-10-15T12:52:55.369Z,4.8
2018-10-15T12:53:56.168Z,4.9
2018-10-15T12:54:56.840Z,4.6
2018-10-15T12:55:57.638Z,4.4
2018-10-15T12:56:58.412Z,4.0
2018-10-15T12:57:59.117Z,4.4
2018-10-15T12:58:59.841Z,4.1
2018-10-15T13:00:00.833Z,4.9
2018-10-15T13:01:01.778Z,4.2
2018-10-15T13:02:02.567Z,4.3
2018-10-15T13:03:03.296Z,4.4
2018-10-15T13:04:04.055Z,4.4
2018-10-15T13:05:04.769Z,4.7
2018-10-15T13:06:05.510Z,4.2
2018-10-15T13:07:06.241Z,4.3
2018-10-15T13:08:06.991Z,4.4
2018-10-15T13:09:07.750Z,4.9
2018-10-15T13:10:08.488Z,4.5
2018-10-15T13:11:09.269Z,4.3
2018-10-15T13:12:10.006Z,4.9
2018-10-15T13:13:10.737Z,4.0
2018-10-15T13:14:11.725Z,4.6
2018-10-15T13:15:12.471Z,4.2
2018-10-15T13:16:13.209Z,4.4
2018-10-15T13:17:13.935Z,4.7
2018-10-15T13:18:14.682Z,4.4
2018-10-15T13:19:15.461Z,5.0
2018-10-15T13:20:16.154Z,4.4
2018-10-15T13:21:16.885Z,4.4
2018-10-15T13:22:17.617Z,4.1
2018-10-15T13:23:18.408Z,4.4
2018-10-15T13:24:19.140Z,4.6
2018-10-15T13:25:19.876Z,4.3
2018-10-15T13:26:20.623Z,4.6
2018-10-15T13:27:21.344Z,4.6
2018-10-15T13:28:22.073Z,4.4
2018-10-15T13:29:22.828Z,4.3
2018-10-15T13:30:23.587Z,4.3
2018-10-15T13:31:24.306Z,4.3
2018-10-15T13:32:25.055Z,4.4
2018-10-15T13:33:25.783Z,5.2
2018-10-15T13:34:26.525Z,4.7
2018-10-15T13:35:27.251Z,4.7
2018-10-15T13:36:27.992Z,4.2
2018-10-15T13:37:28.732Z,4.0
2018-10-15T13:38:29.474Z,4.5
2018-10-15T13:39:30.211Z,4.0
2018-10-15T13:40:30.953Z,4.4